BERRYESSA (BER)

Elevation: 456' · PUTAH CR basin · Operator: US Bureau of Reclamation

Provisional data, subject to change.
Query executed Saturday at 17:47:49   clock

Select a sensor type for a plot of data.
Note: Reservoir Flows are daily averages.

Earlier

Date RES ELE    STORAGE    OUTFLOW    INFLOW    PPT INC   
 FEET   AF   CFS   CFS   INCHES  
03/27/2015 411.58 1054766 431 93 0.00
03/28/2015 411.52 1053806 436 52 0.00
03/29/2015 411.48 1053165 430 190 0.00
03/30/2015 411.44 1052525 444 193 0.00
03/31/2015 411.35 1051085 463 -175 0.00
04/01/2015 411.29 1050125 500 116 0.00
04/02/2015 411.22 1049006 510 4 0.00
04/03/2015 411.16 1048047 486 77 0.00
04/04/2015 411.10 1047089 450 14 0.00
04/05/2015 411.02 1045812 443 -169 0.00
04/06/2015 410.95 1044695 425 -133 0.16
04/07/2015 410.98 1045174 346 603 0.96
04/08/2015 410.95 1044695 265 98 0.07
04/09/2015 410.92 1044216 251 47 0.00
04/10/2015 410.89 1043738 245 57 0.00
04/11/2015 410.85 1043100 259 -16 0.00
04/12/2015 410.80 1042303 259 -117 0.00
04/13/2015 410.77 1041825 271 56 0.00
04/14/2015 410.73 1041188 287 -8 0.00
04/15/2015 410.63 1039595 307 -480 0.00
04/16/2015 410.57 1038640 335 -130 0.00
04/17/2015 410.53 1038004 369 148 0.00
04/18/2015 410.47 1037049 375 -101 0.00
04/19/2015 410.43 1036413 375 59 0.00
04/20/2015 -- -- -- -- --
04/21/2015 -- -- -- -- --
04/22/2015 -- -- -- -- --
04/23/2015 -- -- -- -- --
04/24/2015 -- -- -- -- --
04/25/2015 -- -- -- -- --

Later | Latest

Warning! This data is preliminary and subject to revision.

Show BER Map | Plot BER Data | 1 Month BER Data | Real-Time BER Data | BER Info